Time;durP1;ratioP1;P1;durP2;ratioP2;P2;SDS_P1;SDS_P2;PMS_P1;PMS_P2;Temp;Humidity;BMP_temperature;BMP_pressure;BME280_temperature;BME280_humidity;BME280_pressure;Samples;Min_cycle;Max_cycle;Signal;HPM_P1;HPM_P2
2023/01/31 00:01:24;;;;;;;3.22;1.67;;;7.70;66.20;;;;;;2321616;53;20968;-71
2023/01/31 00:03:55;;;;;;;3.95;2.03;;;7.70;66.10;;;;;;2314060;54;20996;-71
2023/01/31 00:06:23;;;;;;;3.78;1.75;;;7.70;66.10;;;;;;2343092;53;21072;-72
2023/01/31 00:08:49;;;;;;;3.17;1.50;;;7.60;66.10;;;;;;2319695;53;21385;-73
2023/01/31 00:11:18;;;;;;;2.95;1.42;;;7.60;66.10;;;;;;2313072;54;21686;-72
2023/01/31 00:13:44;;;;;;;3.17;1.42;;;7.60;66.00;;;;;;2315220;54;20957;-71
2023/01/31 00:16:11;;;;;;;3.33;1.50;;;7.60;65.90;;;;;;2314371;54;21042;-72
2023/01/31 00:18:41;;;;;;;3.78;1.70;;;7.50;65.70;;;;;;2314857;54;20936;-73
2023/01/31 00:21:15;;;;;;;3.28;1.70;;;7.50;65.60;;;;;;2346330;53;20976;-73
2023/01/31 00:23:42;;;;;;;3.65;1.80;;;7.50;65.60;;;;;;2314703;54;20960;-73
2023/01/31 00:26:10;;;;;;;3.85;1.80;;;7.40;65.50;;;;;;2314344;54;20980;-72
2023/01/31 00:28:36;;;;;;;3.95;2.12;;;7.40;65.50;;;;;;2404146;53;21027;-72
2023/01/31 00:31:03;;;;;;;5.12;2.60;;;7.30;65.40;;;;;;2378620;53;20952;-71
2023/01/31 00:33:57;;;;;;;4.40;2.45;;;7.30;65.40;;;;;;2313083;53;20940;-71
2023/01/31 00:36:25;;;;;;;4.68;2.00;;;7.20;65.00;;;;;;2313956;54;21103;-73
2023/01/31 00:38:53;;;;;;;4.40;2.17;;;7.20;65.40;;;;;;2314912;54;20909;-71
2023/01/31 00:41:21;;;;;;;4.68;2.08;;;7.10;65.40;;;;;;2314338;54;21327;-70
2023/01/31 00:43:48;;;;;;;4.55;1.83;;;7.10;65.40;;;;;;2323124;53;20961;-73
2023/01/31 00:46:21;;;;;;;4.55;2.00;;;7.10;65.40;;;;;;2313992;54;20948;-70
2023/01/31 00:48:47;;;;;;;4.85;2.22;;;7.00;65.40;;;;;;2554690;53;21028;-71
2023/01/31 00:51:14;;;;;;;4.60;2.28;;;7.00;65.40;;;;;;2330089;53;20972;-72
2023/01/31 00:53:40;;;;;;;4.60;2.55;;;6.90;65.30;;;;;;2333513;53;21074;-71
2023/01/31 00:56:11;;;;;;;5.22;2.17;;;6.90;65.40;;;;;;2323837;53;21026;-71
2023/01/31 00:58:40;;;;;;;4.45;2.20;;;6.90;65.40;;;;;;2315128;54;20936;-73
2023/01/31 01:01:26;;;;;;;4.70;2.17;;;6.80;65.50;;;;;;2554539;53;20984;-71
2023/01/31 01:03:52;;;;;;;4.53;2.30;;;6.80;65.20;;;;;;2315167;53;20937;-74
2023/01/31 01:06:19;;;;;;;4.72;2.65;;;6.80;65.60;;;;;;2555405;53;21024;-71
2023/01/31 01:08:45;;;;;;;4.82;2.22;;;6.70;65.50;;;;;;2314781;54;20941;-70
2023/01/31 01:11:17;;;;;;;4.03;2.00;;;6.70;65.60;;;;;;2314007;54;21038;-72
2023/01/31 01:13:43;;;;;;;3.78;2.00;;;6.70;65.60;;;;;;2336479;53;21669;-70
2023/01/31 01:16:16;;;;;;;4.53;2.22;;;6.60;65.60;;;;;;2318013;53;21001;-70
2023/01/31 01:18:44;;;;;;;5.03;2.67;;;6.60;65.60;;;;;;2333771;53;20946;-73
2023/01/31 01:21:12;;;;;;;5.57;2.62;;;6.60;65.60;;;;;;2317059;53;20944;-72
2023/01/31 01:23:41;;;;;;;5.55;2.95;;;6.60;65.60;;;;;;2315346;54;20976;-73
2023/01/31 01:26:21;;;;;;;5.35;2.80;;;6.50;65.50;;;;;;2355105;53;21009;-70
2023/01/31 01:28:47;;;;;;;4.47;2.40;;;6.50;65.50;;;;;;2315081;54;20945;-71
2023/01/31 01:31:15;;;;;;;5.07;2.47;;;6.50;65.70;;;;;;2314322;54;20940;-70
2023/01/31 01:33:41;;;;;;;5.57;3.05;;;6.50;65.80;;;;;;2442970;53;20994;-70
2023/01/31 01:36:10;;;;;;;5.53;2.45;;;6.40;65.80;;;;;;2314078;54;20923;-71
2023/01/31 01:38:36;;;;;;;5.50;3.20;;;6.40;65.90;;;;;;2314897;54;21396;-72
2023/01/31 01:41:03;;;;;;;6.35;3.35;;;6.40;65.90;;;;;;2324037;53;20982;-73
2023/01/31 01:43:41;;;;;;;8.68;2.97;;;6.40;66.00;;;;;;2330549;53;21001;-74
2023/01/31 01:46:07;;;;;;;5.37;3.17;;;6.40;65.90;;;;;;2346601;53;20968;-71
2023/01/31 01:48:34;;;;;;;5.80;2.70;;;6.40;66.10;;;;;;2555516;53;21589;-74
2023/01/31 01:51:00;;;;;;;6.75;2.90;;;6.40;66.10;;;;;;2357836;53;21040;-73
2023/01/31 01:53:27;;;;;;;5.22;2.65;;;6.40;66.20;;;;;;2513414;53;21813;-71
2023/01/31 01:55:56;;;;;;;6.30;2.90;;;6.40;66.20;;;;;;2314808;54;20960;-74
2023/01/31 01:58:28;;;;;;;5.50;3.12;;;6.40;66.30;;;;;;2332738;53;20926;-70
2023/01/31 02:00:54;;;;;;;7.10;3.20;;;6.40;66.30;;;;;;2474182;53;21755;-72
2023/01/31 02:03:20;;;;;;;5.47;2.85;;;6.40;66.30;;;;;;2313160;54;20945;-74
2023/01/31 02:06:01;;;;;;;6.40;3.10;;;6.30;66.20;;;;;;2313767;53;21753;-71
2023/01/31 02:08:28;;;;;;;5.62;2.40;;;6.30;66.00;;;;;;2313976;54;20985;-71
2023/01/31 02:11:03;;;;;;;4.55;2.50;;;6.30;66.10;;;;;;2333602;53;20978;-71
2023/01/31 02:13:29;;;;;;;5.30;2.80;;;6.30;66.10;;;;;;2319707;53;20960;-74
2023/01/31 02:15:56;;;;;;;5.30;2.60;;;6.30;66.00;;;;;;2314457;54;20936;-72
2023/01/31 02:18:23;;;;;;;6.65;2.55;;;6.30;66.20;;;;;;2313213;54;21004;-72
2023/01/31 02:24:06;;;;;;;6.22;3.22;;;6.30;65.90;;;;;;2313441;54;21000;-73
2023/01/31 02:32:41;;;;;;;5.53;2.40;;;6.20;65.00;;;;;;2313695;54;21068;-71
2023/01/31 02:35:29;;;;;;;4.93;2.10;;;6.20;64.90;;;;;;2552979;53;21878;-70
2023/01/31 02:40:53;;;;;;;4.97;2.33;;;6.10;65.50;;;;;;2313661;54;20944;-70
2023/01/31 02:43:29;;;;;;;6.10;2.65;;;6.00;64.70;;;;;;2313582;54;21857;-72
2023/01/31 02:46:09;;;;;;;4.43;2.33;;;6.00;65.40;;;;;;2437692;53;21058;-70
2023/01/31 02:50:02;;;;;;;4.80;2.47;;;5.90;65.20;;;;;;2314206;54;20988;-73
2023/01/31 02:52:42;;;;;;;4.83;2.47;;;5.80;64.60;;;;;;2313797;54;21372;-72
2023/01/31 02:58:16;;;;;;;4.30;2.17;;;5.70;65.20;;;;;;2312723;54;21004;-71
2023/01/31 03:00:44;;;;;;;4.20;2.22;;;5.70;65.30;;;;;;2479029;53;20981;-73
2023/01/31 03:03:31;;;;;;;4.05;2.00;;;5.60;65.20;;;;;;2362335;53;21016;-73
2023/01/31 03:06:39;;;;;;;5.82;2.65;;;5.60;64.90;;;;;;2313191;54;21015;-70
2023/01/31 03:09:12;;;;;;;5.25;2.55;;;5.50;64.80;;;;;;2312906;54;20965;-70
2023/01/31 03:13:44;;;;;;;4.85;2.22;;;5.50;65.00;;;;;;2446910;53;21088;-71
2023/01/31 03:19:23;;;;;;;4.05;2.00;;;5.40;64.80;;;;;;2356834;53;20980;-69
2023/01/31 03:21:59;;;;;;;4.25;2.00;;;5.30;64.80;;;;;;2313836;54;20973;-73
2023/01/31 03:24:29;;;;;;;4.25;2.25;;;5.20;64.60;;;;;;2332031;53;20923;-70
2023/01/31 03:26:55;;;;;;;5.75;2.53;;;5.20;64.70;;;;;;2320533;53;21088;-70
2023/01/31 03:29:22;;;;;;;4.82;2.55;;;5.10;64.70;;;;;;2312916;54;21860;-71
2023/01/31 03:32:02;;;;;;;5.55;2.65;;;5.00;64.60;;;;;;2314410;54;20961;-73
2023/01/31 03:34:28;;;;;;;4.60;2.53;;;5.00;64.50;;;;;;2317276;53;21671;-70
2023/01/31 03:39:54;;;;;;;5.28;2.42;;;5.00;64.70;;;;;;2313953;54;21380;-70
2023/01/31 03:42:31;;;;;;;4.40;2.10;;;4.90;63.90;;;;;;2313474;54;21005;-72
2023/01/31 03:45:06;;;;;;;6.15;3.30;;;4.80;64.50;;;;;;2469000;53;20969;-70
2023/01/31 03:47:35;;;;;;;5.80;2.97;;;4.80;64.50;;;;;;2292057;55;20936;-71
2023/01/31 03:50:54;;;;;;;7.37;3.00;;;4.70;64.50;;;;;;2314676;54;21063;-70
2023/01/31 03:53:33;;;;;;;6.37;2.58;;;4.60;64.00;;;;;;2332753;53;20993;-72
2023/01/31 03:56:12;;;;;;;6.22;2.40;;;4.60;64.30;;;;;;2456691;53;20996;-71
2023/01/31 03:58:42;;;;;;;4.30;2.05;;;4.50;64.40;;;;;;2314993;54;21505;-71
2023/01/31 04:01:08;;;;;;;5.93;2.92;;;4.50;64.50;;;;;;2314037;54;21015;-73
2023/01/31 04:03:42;;;;;;;5.50;2.72;;;4.40;64.40;;;;;;2315144;54;20957;-72
2023/01/31 04:06:09;;;;;;;6.30;2.95;;;4.40;64.40;;;;;;2314250;54;20999;-70
2023/01/31 04:08:35;;;;;;;6.15;2.60;;;4.30;64.40;;;;;;2331245;54;20968;-71
2023/01/31 04:11:07;;;;;;;5.57;2.75;;;4.20;64.30;;;;;;2314037;54;20944;-73
2023/01/31 04:13:34;;;;;;;6.80;3.30;;;4.20;64.30;;;;;;2314576;54;20941;-71
2023/01/31 04:16:00;;;;;;;6.22;3.47;;;4.20;64.30;;;;;;2314832;54;21029;-69
2023/01/31 04:18:29;;;;;;;6.70;3.08;;;4.10;64.30;;;;;;2314977;54;20961;-72
2023/01/31 04:20:58;;;;;;;8.15;3.60;;;4.10;64.40;;;;;;2351991;54;21091;-72
2023/01/31 04:23:25;;;;;;;6.40;3.30;;;4.00;64.30;;;;;;2314113;54;20937;-72
2023/01/31 04:25:54;;;;;;;7.32;3.67;;;4.00;64.50;;;;;;2340201;53;21064;-70
2023/01/31 04:28:21;;;;;;;6.05;3.05;;;3.90;64.40;;;;;;2335953;53;20991;-72
2023/01/31 04:30:53;;;;;;;5.87;2.80;;;3.90;64.60;;;;;;2333427;53;20947;-72
2023/01/31 04:33:20;;;;;;;5.50;3.00;;;3.80;64.50;;;;;;2338272;53;20914;-69
2023/01/31 04:35:47;;;;;;;6.50;3.35;;;3.80;64.50;;;;;;2323680;53;21857;-71
2023/01/31 04:38:13;;;;;;;5.93;3.35;;;3.80;64.50;;;;;;2313922;54;21073;-69
2023/01/31 04:40:41;;;;;;;5.75;3.10;;;3.70;64.50;;;;;;2314146;54;20964;-69
2023/01/31 04:43:07;;;;;;;7.45;4.03;;;3.70;64.50;;;;;;2314537;54;21017;-73
2023/01/31 04:45:34;;;;;;;7.55;4.00;;;3.70;64.60;;;;;;2314767;53;20936;-69
2023/01/31 04:48:00;;;;;;;6.80;3.35;;;3.70;64.70;;;;;;2314931;54;21781;-69
2023/01/31 04:50:27;;;;;;;6.82;3.67;;;3.60;64.70;;;;;;2444496;53;20936;-74
2023/01/31 04:52:54;;;;;;;7.43;3.83;;;3.60;64.70;;;;;;2314682;54;20952;-69
2023/01/31 04:55:21;;;;;;;6.07;3.28;;;3.60;64.90;;;;;;2313395;54;21867;-71
2023/01/31 04:57:47;;;;;;;6.97;3.42;;;3.50;64.80;;;;;;2314667;54;20929;-71
2023/01/31 05:00:14;;;;;;;7.25;3.42;;;3.50;64.90;;;;;;2313630;54;21697;-70
2023/01/31 05:02:40;;;;;;;7.10;3.65;;;3.50;65.00;;;;;;2314643;54;21000;-69
2023/01/31 05:05:07;;;;;;;7.45;3.58;;;3.50;65.00;;;;;;2314737;54;21072;-71
2023/01/31 05:07:36;;;;;;;8.18;4.32;;;3.50;65.00;;;;;;2314352;54;21000;-71
2023/01/31 05:10:03;;;;;;;14.63;6.45;;;3.50;65.00;;;;;;2313986;54;20984;-71
2023/01/31 05:12:30;;;;;;;11.20;5.72;;;3.40;65.00;;;;;;2314397;54;20937;-70
2023/01/31 05:14:57;;;;;;;8.98;4.85;;;3.40;65.10;;;;;;2314871;54;21048;-70
2023/01/31 05:17:28;;;;;;;10.02;4.45;;;3.40;65.30;;;;;;2313817;54;20980;-72
2023/01/31 05:19:58;;;;;;;8.48;3.92;;;3.40;65.40;;;;;;2314981;54;20941;-69
2023/01/31 05:22:24;;;;;;;8.10;4.37;;;3.40;65.40;;;;;;2335872;53;20978;-71
2023/01/31 05:24:51;;;;;;;10.40;5.68;;;3.40;65.40;;;;;;2339660;53;21822;-73
2023/01/31 05:27:19;;;;;;;11.10;5.82;;;3.40;65.30;;;;;;2513722;53;21845;-71
2023/01/31 05:29:46;;;;;;;9.50;4.80;;;3.40;65.30;;;;;;2402406;53;20936;-70
2023/01/31 05:32:15;;;;;;;9.13;5.07;;;3.40;65.30;;;;;;2313676;53;20961;-71
2023/01/31 05:35:15;;;;;;;10.85;5.68;;;3.30;65.20;;;;;;2314132;54;21011;-70
2023/01/31 05:37:41;;;;;;;13.98;6.28;;;3.30;65.20;;;;;;2308885;54;21055;-73
2023/01/31 05:40:14;;;;;;;9.60;5.30;;;3.30;65.40;;;;;;2314258;54;20964;-70
2023/01/31 05:42:44;;;;;;;9.73;5.00;;;3.30;65.60;;;;;;2314480;54;20993;-71
2023/01/31 05:45:11;;;;;;;10.32;5.20;;;3.30;65.70;;;;;;2372811;53;20965;-71
2023/01/31 05:47:37;;;;;;;10.65;4.97;;;3.30;65.90;;;;;;2314341;54;21350;-70
2023/01/31 05:50:04;;;;;;;7.87;4.40;;;3.30;66.20;;;;;;2332062;53;20970;-69
2023/01/31 05:52:30;;;;;;;8.48;4.35;;;3.30;66.30;;;;;;2349256;53;21016;-71
2023/01/31 05:54:57;;;;;;;9.30;5.00;;;3.30;66.30;;;;;;2347063;53;21048;-70
2023/01/31 05:57:24;;;;;;;9.10;4.85;;;3.30;66.30;;;;;;2313452;54;20933;-71
2023/01/31 05:59:50;;;;;;;9.38;5.22;;;3.40;66.40;;;;;;2334925;53;20988;-72
2023/01/31 06:02:17;;;;;;;10.20;5.55;;;3.40;66.40;;;;;;2313167;54;21030;-70
2023/01/31 06:04:44;;;;;;;9.43;4.97;;;3.40;66.40;;;;;;2313549;54;20969;-71
2023/01/31 06:07:10;;;;;;;11.40;5.32;;;3.40;66.40;;;;;;2313402;54;21446;-70
2023/01/31 06:09:37;;;;;;;12.73;5.32;;;3.40;66.30;;;;;;2313400;54;21037;-72
2023/01/31 06:12:04;;;;;;;9.95;5.22;;;3.40;66.30;;;;;;2315669;54;21052;-73
2023/01/31 06:14:31;;;;;;;13.98;5.80;;;3.50;66.30;;;;;;2331107;53;21061;-73
2023/01/31 06:16:57;;;;;;;10.95;5.28;;;3.50;66.20;;;;;;2333750;53;20998;-72
2023/01/31 06:19:24;;;;;;;10.52;6.07;;;3.40;66.10;;;;;;2358119;53;20919;-71
2023/01/31 06:21:51;;;;;;;10.35;6.03;;;3.40;66.00;;;;;;2313880;54;21028;-72
2023/01/31 06:24:17;;;;;;;10.98;5.30;;;3.50;66.10;;;;;;2356474;53;20946;-70
2023/01/31 06:26:44;;;;;;;12.02;6.60;;;3.40;65.90;;;;;;2313837;54;20956;-69
2023/01/31 06:29:10;;;;;;;9.90;5.45;;;3.40;66.00;;;;;;2337504;53;21073;-69
2023/01/31 06:31:36;;;;;;;11.07;5.22;;;3.40;66.00;;;;;;2323597;53;20925;-69
2023/01/31 06:34:04;;;;;;;10.65;5.47;;;3.50;66.00;;;;;;2336651;53;20957;-70
2023/01/31 06:36:33;;;;;;;10.75;5.40;;;3.40;65.80;;;;;;2314768;53;20957;-70
2023/01/31 06:38:59;;;;;;;9.73;5.55;;;3.40;65.70;;;;;;2378929;53;21031;-71
2023/01/31 06:41:25;;;;;;;7.78;4.28;;;3.40;65.70;;;;;;2312751;54;20952;-70
2023/01/31 06:43:51;;;;;;;9.57;4.00;;;3.40;65.70;;;;;;2313589;54;21028;-72
2023/01/31 06:46:18;;;;;;;9.48;5.35;;;3.40;65.60;;;;;;2313034;54;20956;-73
2023/01/31 06:48:44;;;;;;;7.90;4.32;;;3.40;65.60;;;;;;2314053;54;20957;-71
2023/01/31 06:51:10;;;;;;;12.80;5.60;;;3.30;65.50;;;;;;2313390;54;20948;-71
2023/01/31 06:53:37;;;;;;;10.80;5.57;;;3.30;65.40;;;;;;2314134;54;20944;-73
2023/01/31 06:56:03;;;;;;;9.75;5.28;;;3.30;65.40;;;;;;2313516;54;20987;-71
2023/01/31 06:58:29;;;;;;;10.77;6.47;;;3.30;65.40;;;;;;2330454;53;21225;-71
2023/01/31 07:00:57;;;;;;;10.85;5.60;;;3.30;65.40;;;;;;2321950;53;21410;-71
2023/01/31 07:03:23;;;;;;;11.40;6.40;;;3.30;65.40;;;;;;2354833;53;21020;-72
2023/01/31 07:05:50;;;;;;;10.48;5.65;;;3.20;65.30;;;;;;2311498;54;20980;-69
2023/01/31 07:08:16;;;;;;;9.30;5.28;;;3.20;65.30;;;;;;2331471;54;22073;-70
2023/01/31 07:10:42;;;;;;;8.85;5.32;;;3.20;65.30;;;;;;2415674;53;21585;-72
2023/01/31 07:13:08;;;;;;;8.15;4.80;;;3.20;65.30;;;;;;2294703;54;21502;-69
2023/01/31 07:15:34;;;;;;;8.13;4.57;;;3.20;65.40;;;;;;2295609;54;20952;-73
2023/01/31 07:18:01;;;;;;;10.38;5.43;;;3.10;65.30;;;;;;2295110;54;21080;-69
2023/01/31 07:20:27;;;;;;;9.07;4.65;;;3.10;65.20;;;;;;2349814;53;22141;-70
2023/01/31 07:22:55;;;;;;;9.85;5.40;;;3.10;65.30;;;;;;2311838;53;20935;-70
2023/01/31 07:25:22;;;;;;;8.35;4.43;;;3.10;65.30;;;;;;2335746;53;21475;-72
2023/01/31 07:27:48;;;;;;;7.03;3.92;;;3.10;65.40;;;;;;2295199;54;21511;-72
2023/01/31 07:30:15;;;;;;;9.57;4.57;;;3.10;65.40;;;;;;2301414;54;21359;-73
2023/01/31 07:32:41;;;;;;;9.40;4.82;;;3.10;65.40;;;;;;2301617;53;21395;-68
2023/01/31 07:35:07;;;;;;;12.55;6.25;;;3.00;65.40;;;;;;2294994;54;21503;-69
2023/01/31 07:37:34;;;;;;;13.73;6.57;;;3.00;65.40;;;;;;2294849;54;21336;-69
2023/01/31 07:40:00;;;;;;;13.32;5.97;;;3.00;65.60;;;;;;2295336;54;21100;-68
2023/01/31 07:42:27;;;;;;;16.37;7.80;;;3.00;65.70;;;;;;2295740;54;22108;-69
2023/01/31 07:44:53;;;;;;;17.08;7.78;;;3.00;65.80;;;;;;2297013;54;20960;-70
2023/01/31 07:47:20;;;;;;;18.80;9.07;;;3.00;65.90;;;;;;2296139;54;20928;-74
2023/01/31 07:49:49;;;;;;;12.63;7.12;;;3.00;66.00;;;;;;2411457;53;20969;-72
2023/01/31 07:52:15;;;;;;;14.85;7.18;;;3.00;66.10;;;;;;2295062;54;20956;-72
2023/01/31 07:57:09;;;;;;;14.60;7.18;;;3.10;66.30;;;;;;2445090;54;21048;-84
2023/01/31 07:59:35;;;;;;;12.80;6.60;;;3.10;66.10;;;;;;2444004;54;21016;-85
2023/01/31 08:04:46;;;;;;;11.63;5.97;;;3.00;66.40;;;;;;2423981;55;21106;-86
2023/01/31 08:07:13;;;;;;;13.23;6.43;;;3.20;66.60;;;;;;2415673;55;22044;-86
2023/01/31 08:09:42;;;;;;;14.87;7.18;;;3.20;66.70;;;;;;2201733;55;21410;-87
2023/01/31 08:12:08;;;;;;;20.30;9.55;;;3.20;66.70;;;;;;2417079;55;22288;-85
2023/01/31 08:14:35;;;;;;;38.50;16.62;;;3.30;66.90;;;;;;2200815;55;21136;-86
2023/01/31 08:17:01;;;;;;;23.62;11.20;;;3.30;66.90;;;;;;2414531;55;22237;-85
2023/01/31 08:19:27;;;;;;;35.45;16.33;;;3.30;66.90;;;;;;2223108;55;21020;-84
2023/01/31 08:21:54;;;;;;;28.45;14.18;;;3.30;67.00;;;;;;2414274;55;21007;-83
2023/01/31 08:24:20;;;;;;;23.58;10.57;;;3.40;67.20;;;;;;2413550;55;20955;-83
2023/01/31 08:26:46;;;;;;;16.95;8.82;;;3.40;67.30;;;;;;2415784;55;20955;-83
2023/01/31 08:29:13;;;;;;;13.82;7.32;;;3.50;67.40;;;;;;2412861;55;22075;-83
2023/01/31 08:31:39;;;;;;;13.20;7.22;;;3.50;67.40;;;;;;2414540;55;20959;-83
2023/01/31 08:34:06;;;;;;;14.25;7.70;;;3.60;67.70;;;;;;2415075;55;20995;-84
2023/01/31 08:36:32;;;;;;;12.90;6.53;;;3.60;67.80;;;;;;2414525;55;21600;-83
2023/01/31 08:38:59;;;;;;;13.43;7.00;;;3.70;68.00;;;;;;2414993;55;20951;-82
2023/01/31 08:41:26;;;;;;;13.27;6.80;;;3.70;68.00;;;;;;2413472;55;20984;-83
2023/01/31 08:43:54;;;;;;;14.15;6.85;;;3.80;68.20;;;;;;2413827;55;20970;-83
2023/01/31 08:46:24;;;;;;;12.27;6.12;;;3.90;68.30;;;;;;2415179;55;20980;-84
2023/01/31 08:48:50;;;;;;;10.68;5.95;;;3.90;68.20;;;;;;2418799;55;21370;-84
2023/01/31 08:51:16;;;;;;;16.85;9.13;;;3.80;68.20;;;;;;2225676;55;21021;-84
2023/01/31 08:53:43;;;;;;;16.08;7.72;;;4.00;68.30;;;;;;2418042;55;21002;-84
2023/01/31 08:56:10;;;;;;;12.70;6.93;;;4.10;68.40;;;;;;2203617;55;20975;-85
2023/01/31 08:58:42;;;;;;;14.07;7.05;;;4.20;68.50;;;;;;2419732;55;20962;-83
2023/01/31 09:01:10;;;;;;;12.23;6.62;;;4.20;68.50;;;;;;2207194;55;20981;-82
2023/01/31 09:03:36;;;;;;;13.50;7.28;;;4.30;68.60;;;;;;2421509;55;21055;-83
2023/01/31 09:06:06;;;;;;;11.10;6.22;;;4.40;68.50;;;;;;2419936;55;20974;-84
2023/01/31 09:08:32;;;;;;;13.05;6.10;;;4.40;68.60;;;;;;2419490;55;21014;-81
2023/01/31 09:11:00;;;;;;;12.52;6.57;;;4.50;68.50;;;;;;2422764;55;20955;-83
2023/01/31 09:13:27;;;;;;;13.00;6.65;;;4.60;68.80;;;;;;2421188;55;21414;-82
2023/01/31 09:15:58;;;;;;;16.90;8.90;;;4.70;68.80;;;;;;2421248;55;21023;-84
2023/01/31 09:18:24;;;;;;;11.80;6.60;;;4.70;68.80;;;;;;2419843;55;20967;-84
2023/01/31 09:20:51;;;;;;;13.95;7.55;;;4.70;68.70;;;;;;2204295;55;21007;-83
2023/01/31 09:23:26;;;;;;;16.70;7.93;;;4.90;68.90;;;;;;2419723;55;20943;-84
2023/01/31 09:25:53;;;;;;;12.63;7.03;;;4.90;69.00;;;;;;2420895;55;21082;-83
2023/01/31 09:28:20;;;;;;;21.10;9.70;;;5.00;69.20;;;;;;2420200;55;21037;-85
2023/01/31 09:30:46;;;;;;;20.52;9.25;;;5.10;69.40;;;;;;2420268;55;21042;-84
2023/01/31 09:33:13;;;;;;;19.40;9.90;;;5.20;69.40;;;;;;2420041;55;20987;-84
2023/01/31 09:35:40;;;;;;;15.95;8.43;;;5.20;69.40;;;;;;2441967;55;21052;-84
2023/01/31 09:38:09;;;;;;;21.17;10.23;;;5.30;69.50;;;;;;2422709;55;21664;-86
2023/01/31 09:40:37;;;;;;;17.80;8.63;;;5.40;69.40;;;;;;2419837;55;21889;-85
2023/01/31 09:43:04;;;;;;;15.57;8.07;;;5.60;69.50;;;;;;2203934;55;21034;-83
2023/01/31 09:45:35;;;;;;;15.48;8.02;;;5.60;69.40;;;;;;2419724;55;20951;-83
2023/01/31 09:48:02;;;;;;;16.62;8.00;;;5.70;69.50;;;;;;2419988;55;20971;-85
2023/01/31 09:50:39;;;;;;;15.25;7.72;;;5.70;69.40;;;;;;2419992;55;21953;-84
2023/01/31 09:53:20;;;;;;;15.43;8.30;;;5.80;69.40;;;;;;2420146;55;22001;-86
2023/01/31 09:56:23;;;;;;;13.13;7.12;;;5.90;69.60;;;;;;2420974;55;21026;-86
2023/01/31 09:59:46;;;;;;;14.30;7.40;;;6.00;69.60;;;;;;2205253;55;21003;-85
2023/01/31 10:06:23;;;;;;;14.57;7.20;;;6.10;70.40;;;;;;2420747;55;21126;-82
2023/01/31 10:09:41;;;;;;;12.57;6.50;;;6.30;69.20;;;;;;2420806;55;21074;-87
2023/01/31 10:12:21;;;;;;;12.82;7.15;;;6.40;68.90;;;;;;2421962;55;21993;-84
2023/01/31 10:15:00;;;;;;;13.35;8.10;;;6.50;69.00;;;;;;2421129;55;20969;-86
2023/01/31 10:17:37;;;;;;;15.80;8.43;;;6.50;68.70;;;;;;2422170;55;22105;-86
2023/01/31 10:20:20;;;;;;;15.20;8.50;;;6.60;68.70;;;;;;2422489;55;21051;-85
2023/01/31 10:22:58;;;;;;;15.27;7.30;;;6.60;68.50;;;;;;2206772;56;21118;-87
2023/01/31 10:25:53;;;;;;;12.07;6.85;;;6.60;68.50;;;;;;2425573;55;21868;-85
2023/01/31 10:29:45;;;;;;;12.05;6.25;;;6.70;68.60;;;;;;2447042;54;22158;-87
2023/01/31 10:32:20;;;;;;;11.45;6.55;;;6.70;68.10;;;;;;2427665;55;22088;-89
2023/01/31 10:34:51;;;;;;;10.82;5.82;;;6.80;68.40;;;;;;2431459;55;21037;-86
2023/01/31 10:37:42;;;;;;;10.27;6.10;;;6.90;68.70;;;;;;2425123;55;21081;-83
2023/01/31 10:40:21;;;;;;;10.73;5.28;;;6.90;68.50;;;;;;2427162;55;21015;-89
2023/01/31 10:42:56;;;;;;;14.85;7.10;;;6.90;68.60;;;;;;2432129;55;21038;-90
2023/01/31 10:45:29;;;;;;;12.80;6.85;;;7.00;68.80;;;;;;2434999;55;21026;-89
2023/01/31 10:48:25;;;;;;;14.48;7.47;;;7.00;68.70;;;;;;2444890;54;20952;-90
2023/01/31 10:52:56;;;;;;;11.68;6.40;;;7.10;68.70;;;;;;2440252;55;20996;-85
2023/01/31 10:56:37;;;;;;;10.02;5.55;;;7.20;68.20;;;;;;2443245;55;20975;-84
2023/01/31 10:59:21;;;;;;;9.43;5.07;;;7.20;68.40;;;;;;2429351;55;21113;-87
2023/01/31 11:01:48;;;;;;;7.87;4.68;;;7.30;68.40;;;;;;2428577;55;20987;-84
2023/01/31 11:04:25;;;;;;;8.93;4.93;;;7.30;68.20;;;;;;2426990;55;21010;-84
2023/01/31 11:06:53;;;;;;;9.75;4.45;;;7.40;68.40;;;;;;2453326;54;20996;-84
2023/01/31 11:09:22;;;;;;;8.20;4.72;;;7.40;68.10;;;;;;2430176;55;21741;-84
2023/01/31 11:11:54;;;;;;;8.45;4.97;;;7.40;68.20;;;;;;2427204;55;21338;-85
2023/01/31 11:14:23;;;;;;;;;;;7.50;68.40;;;;;;2432047;55;21038;-86
2023/01/31 11:17:00;;;;;;;8.18;4.30;;;7.50;67.50;;;;;;2428803;55;20209;-84
2023/01/31 11:19:45;;;;;;;9.60;4.55;;;7.60;68.20;;;;;;2426905;55;21989;-85
2023/01/31 11:22:23;;;;;;;8.93;4.75;;;7.60;68.40;;;;;;2439387;55;21025;-85
2023/01/31 11:24:50;;;;;;;7.75;4.15;;;7.70;68.10;;;;;;2445925;55;20967;-83
2023/01/31 11:27:36;;;;;;;8.85;4.93;;;7.60;68.00;;;;;;2430911;55;20979;-82
2023/01/31 11:30:08;;;;;;;12.75;6.65;;;7.70;68.20;;;;;;2431752;55;20986;-84
2023/01/31 11:32:35;;;;;;;;;;;7.80;68.40;;;;;;2458381;54;21147;-84
2023/01/31 11:35:21;;;;;;;11.27;5.90;;;7.80;67.40;;;;;;2427142;55;20145;-83
2023/01/31 11:38:33;;;;;;;14.68;7.62;;;7.90;68.40;;;;;;2426351;55;21031;-83
2023/01/31 11:41:00;;;;;;;12.25;6.45;;;7.90;67.40;;;;;;2426332;55;20949;-83
2023/01/31 11:43:29;;;;;;;10.88;5.43;;;7.90;67.90;;;;;;2425854;55;20987;-84
2023/01/31 11:45:57;;;;;;;11.12;5.43;;;7.90;67.70;;;;;;2426048;55;20978;-84
2023/01/31 11:49:04;;;;;;;9.40;4.30;;;8.00;67.80;;;;;;2424386;55;21097;-83
2023/01/31 11:51:34;;;;;;;6.07;3.62;;;8.00;67.80;;;;;;2422608;55;20974;-83
2023/01/31 11:54:03;;;;;;;7.72;3.97;;;8.00;67.70;;;;;;2423968;55;21026;-83
2023/01/31 11:56:31;;;;;;;8.65;3.95;;;8.00;67.70;;;;;;2443949;55;22148;-84
2023/01/31 11:59:05;;;;;;;6.90;3.58;;;8.10;68.00;;;;;;2431960;55;21031;-85
2023/01/31 12:01:32;;;;;;;6.75;3.70;;;8.10;67.90;;;;;;2424054;55;20979;-83
2023/01/31 12:04:00;;;;;;;5.85;3.37;;;8.00;67.70;;;;;;2432718;54;21041;-83
2023/01/31 12:06:34;;;;;;;6.97;3.80;;;8.20;68.00;;;;;;2449307;55;21089;-85
2023/01/31 12:09:05;;;;;;;7.70;3.65;;;8.30;67.90;;;;;;2442672;55;20974;-85
2023/01/31 12:11:33;;;;;;;6.68;3.30;;;8.30;68.00;;;;;;2424185;55;21288;-83
2023/01/31 12:14:37;;;;;;;7.87;3.95;;;8.30;68.00;;;;;;2424692;55;21027;-84
2023/01/31 12:17:03;;;;;;;5.90;3.15;;;8.40;67.40;;;;;;2426077;55;20959;-83
2023/01/31 12:20:16;;;;;;;5.37;3.03;;;8.40;68.00;;;;;;2432111;55;21016;-83
2023/01/31 12:23:19;;;;;;;9.05;3.47;;;8.50;67.80;;;;;;2429533;55;20947;-83
2023/01/31 12:26:07;;;;;;;7.03;3.55;;;8.60;67.50;;;;;;2207073;55;21680;-84
2023/01/31 12:34:03;;;;;;;6.65;3.92;;;8.60;67.70;;;;;;2423390;55;21046;-83
2023/01/31 12:36:38;;;;;;;6.60;2.97;;;8.80;66.90;;;;;;2422461;55;20978;-83
2023/01/31 12:42:59;;;;;;;7.45;3.30;;;8.80;67.60;;;;;;2424545;55;22051;-84
2023/01/31 12:46:05;;;;;;;7.12;3.12;;;8.80;67.00;;;;;;2422292;55;21114;-84
2023/01/31 12:51:36;;;;;;;7.10;3.25;;;8.90;66.60;;;;;;2430637;54;21103;-83
2023/01/31 12:54:36;;;;;;;7.32;2.87;;;8.90;67.00;;;;;;2207632;55;21098;-84
2023/01/31 12:57:34;;;;;;;8.00;3.05;;;8.90;66.40;;;;;;2209221;55;21071;-83
2023/01/31 13:00:34;;;;;;;6.80;3.40;;;8.90;66.60;;;;;;2450203;55;20968;-84
2023/01/31 13:09:49;;;;;;;7.00;3.25;;;8.90;66.60;;;;;;2425736;55;20967;-83
2023/01/31 13:12:25;;;;;;;4.35;2.20;;;9.00;65.90;;;;;;2424593;55;21070;-84
2023/01/31 13:14:57;;;;;;;8.02;3.80;;;9.00;67.00;;;;;;2425500;55;21049;-82
2023/01/31 13:17:26;;;;;;;7.07;3.40;;;9.00;66.80;;;;;;2425309;55;20956;-83
2023/01/31 13:22:48;;;;;;;7.60;3.58;;;9.10;66.90;;;;;;2424192;55;20991;-83
2023/01/31 13:25:36;;;;;;;7.35;3.25;;;9.00;65.70;;;;;;2428645;54;20958;-83
2023/01/31 13:28:15;;;;;;;7.93;3.60;;;9.00;66.30;;;;;;2440607;55;21060;-83
2023/01/31 13:32:09;;;;;;;6.40;3.25;;;8.90;66.20;;;;;;2425226;55;20971;-83
2023/01/31 13:34:40;;;;;;;;;;;9.00;65.40;;;;;;2428584;55;20999;-84
2023/01/31 13:37:11;;;;;;;6.22;2.45;;;9.10;65.80;;;;;;2450145;55;20070;-83
2023/01/31 13:39:45;;;;;;;6.00;2.75;;;9.10;66.50;;;;;;2207634;55;20966;-84
2023/01/31 13:42:15;;;;;;;6.45;3.17;;;9.10;66.50;;;;;;2424795;55;21941;-84
2023/01/31 13:44:42;;;;;;;5.75;2.78;;;9.10;66.30;;;;;;2449068;55;22048;-83
2023/01/31 13:47:15;;;;;;;6.30;2.60;;;9.10;66.40;;;;;;2427039;55;21142;-83
2023/01/31 13:49:56;;;;;;;6.12;2.78;;;9.10;66.50;;;;;;2428624;55;21082;-83
2023/01/31 13:52:34;;;;;;;5.03;2.28;;;9.10;66.10;;;;;;2426591;55;20947;-83
2023/01/31 13:55:26;;;;;;;7.93;3.30;;;9.20;66.70;;;;;;2439754;54;20988;-83
2023/01/31 13:57:59;;;;;;;5.20;2.40;;;9.20;66.60;;;;;;2435274;55;21066;-85
2023/01/31 14:00:46;;;;;;;;;;;9.20;66.40;;;;;;2427720;55;21442;-83
2023/01/31 14:03:17;;;;;;;4.72;2.53;;;9.30;65.40;;;;;;2424714;55;20168;-83
2023/01/31 14:05:59;;;;;;;6.30;2.50;;;9.40;66.50;;;;;;2425918;54;21038;-83
2023/01/31 14:13:37;;;;;;;7.60;2.87;;;9.30;66.20;;;;;;2441884;55;21011;-83
2023/01/31 14:16:31;;;;;;;5.50;2.17;;;9.40;65.50;;;;;;2450412;55;21049;-83
2023/01/31 14:18:58;;;;;;;5.55;2.10;;;9.40;66.50;;;;;;2448966;54;20967;-83
2023/01/31 14:23:26;;;;;;;6.05;2.40;;;9.50;66.30;;;;;;2425183;55;21959;-83
2023/01/31 14:25:52;;;;;;;5.43;2.80;;;9.50;65.30;;;;;;2424411;55;20979;-84
2023/01/31 14:28:19;;;;;;;5.57;2.87;;;9.50;66.30;;;;;;2425523;55;20959;-84